Time;durP1;ratioP1;P1;durP2;ratioP2;P2;SDS_P1;SDS_P2;PMS_P1;PMS_P2;Temp;Humidity;BMP_temperature;BMP_pressure;BME280_temperature;BME280_humidity;BME280_pressure;Samples;Min_cycle;Max_cycle;Signal;HPM_P1;HPM_P2
2021/11/11 00:00:18;;;;;;;;;89.75;66.25;;;;;3.32;66.42;101718.25;5077390;28;45566;-60
2021/11/11 00:02:44;;;;;;;;;86.75;66.25;;;;;3.28;66.60;101704.53;5077083;28;45437;-60
2021/11/11 00:05:09;;;;;;;;;92.25;66.25;;;;;3.26;66.81;101707.22;5077066;28;45348;-60
2021/11/11 00:07:35;;;;;;;;;87.25;65.75;;;;;3.26;66.56;101707.22;5077202;28;45338;-60
2021/11/11 00:10:01;;;;;;;;;85.00;64.25;;;;;3.25;66.67;101705.50;5077214;28;45313;-59
2021/11/11 00:12:27;;;;;;;;;84.50;65.00;;;;;3.22;67.13;101692.66;5076698;28;52404;-59
2021/11/11 00:14:53;;;;;;;;;82.00;62.50;;;;;3.22;67.16;101700.44;5074782;28;45312;-60
2021/11/11 00:17:19;;;;;;;;;80.25;62.50;;;;;3.24;67.02;101687.38;5076822;28;45229;-60
2021/11/11 00:19:44;;;;;;;;;89.75;65.50;;;;;3.25;66.84;101686.47;5077042;28;45284;-60
2021/11/11 00:22:09;;;;;;;;;89.50;66.25;;;;;3.25;66.86;101689.94;5075729;28;70858;-60
2021/11/11 00:24:35;;;;;;;;;83.50;65.50;;;;;3.25;66.61;101689.94;5075869;28;66962;-60
2021/11/11 00:27:00;;;;;;;;;77.25;60.25;;;;;3.24;66.63;101684.78;5075812;28;62646;-60
2021/11/11 00:29:25;;;;;;;;;82.00;61.00;;;;;3.25;66.72;101682.13;5074591;28;69372;-60
2021/11/11 00:31:51;;;;;;;;;85.00;62.75;;;;;3.25;66.39;101681.28;5075701;28;71457;-60
2021/11/11 00:34:16;;;;;;;;;80.00;61.50;;;;;3.24;66.48;101674.38;5076714;28;45459;-60
2021/11/11 00:36:42;;;;;;;;;79.00;59.50;;;;;3.24;66.55;101676.97;5076796;28;45350;-60
2021/11/11 00:39:07;;;;;;;;;84.25;62.25;;;;;3.24;66.98;101666.59;5076152;28;56897;-60
2021/11/11 00:41:33;;;;;;;;;81.25;59.50;;;;;3.24;66.84;101674.38;5076494;28;46412;-60
2021/11/11 00:43:58;;;;;;;;;82.75;62.00;;;;;3.25;66.93;101676.94;5076443;28;45346;-60
2021/11/11 00:46:24;;;;;;;;;91.50;66.50;;;;;3.22;67.03;101674.47;5076845;28;45719;-59
2021/11/11 00:48:49;;;;;;;;;95.50;72.75;;;;;3.20;66.57;101672.81;5075872;28;61975;-60
2021/11/11 00:51:14;;;;;;;;;106.00;80.50;;;;;3.21;66.39;101662.38;5076435;28;45354;-59
2021/11/11 00:53:40;;;;;;;;;88.25;64.00;;;;;3.21;66.83;101657.19;5076567;28;45476;-59
2021/11/11 00:56:05;;;;;;;;;74.00;57.00;;;;;3.22;66.86;101658.00;5075802;28;64134;-60
2021/11/11 00:58:31;;;;;;;;;78.50;57.00;;;;;3.21;66.53;101653.72;5075538;28;68996;-59
2021/11/11 01:00:56;;;;;;;;;78.25;55.75;;;;;3.19;66.33;101658.13;5076296;28;45342;-59
2021/11/11 01:03:30;;;;;;;;;78.50;59.75;;;;;3.16;66.54;101653.91;5075057;28;45206;-60
2021/11/11 01:05:55;;;;;;;;;84.50;61.50;;;;;3.20;66.50;101660.69;5076593;28;45478;-59
2021/11/11 01:08:22;;;;;;;;;85.75;62.00;;;;;3.20;66.11;101657.22;5058125;28;45468;-60
2021/11/11 01:10:48;;;;;;;;;77.25;57.75;;;;;3.21;66.13;101662.38;5074859;28;46191;-60
2021/11/11 01:13:13;;;;;;;;;77.00;57.75;;;;;3.21;65.95;101667.56;5075086;28;45347;-59
2021/11/11 01:15:38;;;;;;;;;81.75;59.75;;;;;3.21;66.01;101664.13;5075616;28;61520;-59
2021/11/11 01:18:05;;;;;;;;;78.25;59.50;;;;;3.21;66.20;101662.38;5074981;28;45210;-59
2021/11/11 01:20:31;;;;;;;;;76.00;57.50;;;;;3.22;65.93;101663.22;5076354;28;46300;-59
2021/11/11 01:22:57;;;;;;;;;84.25;60.50;;;;;3.22;65.97;101653.69;5076114;28;45340;-59
2021/11/11 01:25:24;;;;;;;;;80.00;61.00;;;;;3.21;66.02;101656.31;5076035;28;45351;-59
2021/11/11 01:27:49;;;;;;;;;78.00;58.75;;;;;3.20;66.19;101663.28;5076175;28;45335;-60
2021/11/11 01:30:15;;;;;;;;;77.75;61.25;;;;;3.19;66.09;101666.78;5075819;28;48247;-60
2021/11/11 01:32:40;;;;;;;;;75.50;56.75;;;;;3.20;65.98;101665.03;5076014;28;45417;-59
2021/11/11 01:35:07;;;;;;;;;82.00;61.25;;;;;3.20;65.80;101650.28;5075875;28;45403;-60
2021/11/11 01:37:33;;;;;;;;;76.50;58.25;;;;;3.20;65.41;101644.25;5078875;28;45494;-59
2021/11/11 01:39:58;;;;;;;;;79.75;59.00;;;;;3.19;65.49;101647.75;5079239;28;53622;-60
2021/11/11 01:42:23;;;;;;;;;77.75;60.25;;;;;3.16;65.68;101648.72;5078922;28;54598;-60
2021/11/11 01:44:52;;;;;;;;;76.75;57.50;;;;;3.15;65.58;101643.59;5079522;28;45303;-60
2021/11/11 01:47:18;;;;;;;;;77.50;56.75;;;;;3.12;65.54;101639.38;5079383;28;45256;-60
2021/11/11 01:49:43;;;;;;;;;77.50;58.00;;;;;3.10;65.47;101639.44;5079254;28;45342;-60
2021/11/11 01:52:09;;;;;;;;;71.25;58.00;;;;;3.09;65.27;101631.69;5078205;28;71971;-59
2021/11/11 01:54:35;;;;;;;;;78.75;58.00;;;;;3.11;65.63;101635.94;5079285;28;45287;-59
2021/11/11 01:57:00;;;;;;;;;74.25;57.75;;;;;3.10;65.16;101629.06;5079296;28;45290;-60
2021/11/11 01:59:25;;;;;;;;;72.75;57.00;;;;;3.09;65.35;101631.69;5078234;28;67150;-60
2021/11/11 02:01:51;;;;;;;;;79.50;58.00;;;;;3.05;65.36;101636.16;5078475;28;61724;-60
2021/11/11 02:04:16;;;;;;;;;80.25;58.25;;;;;3.03;65.35;101637.97;5078341;28;63715;-60
2021/11/11 02:06:42;;;;;;;;;63.75;50.75;;;;;3.01;65.15;101632.00;5078160;28;67575;-60
2021/11/11 02:09:08;;;;;;;;;77.00;59.25;;;;;3.00;65.12;101632.91;5079079;28;46328;-60
2021/11/11 02:11:33;;;;;;;;;80.25;59.25;;;;;2.95;65.72;101621.84;5077878;28;45583;-59
2021/11/11 02:13:59;;;;;;;;;79.50;58.00;;;;;2.91;65.58;101617.69;5077871;28;45398;-60
2021/11/11 02:16:24;;;;;;;;;77.75;55.00;;;;;2.86;65.70;101619.59;5079199;28;45376;-60
2021/11/11 02:18:49;;;;;;;;;77.25;57.50;;;;;2.79;65.46;101614.66;5077852;28;68451;-60
2021/11/11 02:21:16;;;;;;;;;72.25;56.00;;;;;2.75;65.61;101607.06;5060602;28;46080;-59
2021/11/11 02:23:42;;;;;;;;;78.75;58.50;;;;;2.76;65.83;101622.56;5078724;28;45374;-60
2021/11/11 02:26:08;;;;;;;;;75.25;58.00;;;;;2.75;65.63;101617.44;5078576;28;45352;-60
2021/11/11 02:28:33;;;;;;;;;78.00;59.50;;;;;2.73;65.52;101620.06;5078715;28;45411;-59
2021/11/11 02:30:59;;;;;;;;;79.50;59.25;;;;;2.70;65.62;101624.53;5076523;28;45364;-60
2021/11/11 02:33:25;;;;;;;;;76.75;57.75;;;;;2.67;65.71;101628.09;5077953;28;62098;-59
2021/11/11 02:35:50;;;;;;;;;72.75;57.00;;;;;2.62;65.92;101623.09;5077593;28;45505;-59
2021/11/11 02:38:16;;;;;;;;;77.75;58.25;;;;;2.59;65.84;101612.81;5076984;28;45466;-60
2021/11/11 02:40:42;;;;;;;;;77.00;58.50;;;;;2.59;66.15;101622.38;5078365;27;45185;-59
2021/11/11 02:43:09;;;;;;;;;80.75;59.50;;;;;2.59;65.75;101618.00;5078699;28;45267;-60
2021/11/11 02:45:37;;;;;;;;;81.50;61.25;;;;;2.57;65.67;101619.81;5078580;28;45226;-59
2021/11/11 02:48:02;;;;;;;;;80.25;58.75;;;;;2.57;66.10;101613.78;5077191;28;45743;-60
2021/11/11 02:50:28;;;;;;;;;81.25;61.50;;;;;2.56;66.11;101617.28;5078272;28;45527;-60
2021/11/11 02:52:54;;;;;;;;;79.50;57.50;;;;;2.54;65.87;101619.91;5078456;28;45415;-60
2021/11/11 02:55:20;;;;;;;;;83.50;61.75;;;;;2.51;66.01;101618.31;5077207;28;45615;-60
2021/11/11 02:57:46;;;;;;;;;81.75;62.25;;;;;2.51;65.71;101620.03;5076869;28;46053;-60
2021/11/11 03:00:26;;;;;;;;;85.50;62.25;;;;;2.52;65.82;101619.13;5078197;28;45751;-60
2021/11/11 03:02:52;;;;;;;;;80.25;60.50;;;;;2.48;65.97;101618.41;5077155;27;45505;-60
2021/11/11 03:05:20;;;;;;;;;80.25;59.00;;;;;2.47;65.68;101629.69;5078219;28;45403;-60
2021/11/11 03:07:45;;;;;;;;;85.00;63.00;;;;;2.46;65.89;101632.31;5075828;28;45411;-60
2021/11/11 03:10:14;;;;;;;;;80.00;59.75;;;;;2.43;65.90;101637.63;5077922;27;45343;-60
2021/11/11 03:12:40;;;;;;;;;76.75;58.50;;;;;2.41;65.55;101632.50;5078147;28;45324;-60
2021/11/11 03:15:05;;;;;;;;;74.50;58.25;;;;;2.41;65.74;101637.69;5077695;28;54895;-60
2021/11/11 03:17:31;;;;;;;;;79.25;59.50;;;;;2.40;65.94;101636.00;5077845;28;46363;-60
2021/11/11 03:19:56;;;;;;;;;77.75;57.50;;;;;2.37;65.72;101634.38;5077002;27;69901;-60
2021/11/11 03:22:22;;;;;;;;;79.00;58.50;;;;;2.36;66.27;101639.59;5076606;27;45421;-60
2021/11/11 03:24:48;;;;;;;;;79.00;59.50;;;;;2.35;66.75;101637.91;5077032;28;66367;-60
2021/11/11 03:27:14;;;;;;;;;79.50;61.25;;;;;2.35;67.13;101636.19;5076230;28;46388;-60
2021/11/11 03:29:39;;;;;;;;;77.75;61.25;;;;;2.36;67.35;101639.59;5077678;28;45406;-60
2021/11/11 03:32:05;;;;;;;;;78.75;59.25;;;;;2.36;66.92;101639.59;5077843;28;45286;-59
2021/11/11 03:34:30;;;;;;;;;74.00;54.50;;;;;2.35;67.11;101637.91;5077778;28;45226;-60
2021/11/11 03:36:56;;;;;;;;;82.50;58.25;;;;;2.35;66.95;101641.38;5077533;28;46440;-60
2021/11/11 03:39:22;;;;;;;;;75.75;57.50;;;;;2.35;67.26;101643.09;5077350;28;47081;-59
2021/11/11 03:41:48;;;;;;;;;80.00;58.50;;;;;2.33;67.74;101637.97;5077735;28;45370;-60
2021/11/11 03:44:15;;;;;;;;;81.00;60.50;;;;;2.40;67.77;101635.13;5077692;27;45622;-60
2021/11/11 03:46:41;;;;;;;;;76.50;57.50;;;;;2.42;68.16;101639.38;5077447;28;45481;-60
2021/11/11 03:49:07;;;;;;;;;81.75;58.75;;;;;2.47;68.61;101639.22;5077308;27;47212;-60
2021/11/11 03:51:33;;;;;;;;;78.50;58.00;;;;;2.50;68.72;101633.91;5077477;28;45270;-60
2021/11/11 03:53:58;;;;;;;;;82.75;58.25;;;;;2.52;69.12;101642.47;5077568;28;45311;-60
2021/11/11 03:56:24;;;;;;;;;79.25;58.00;;;;;2.54;69.37;101639.84;5076655;28;63243;-60
2021/11/11 03:58:49;;;;;;;;;76.50;58.25;;;;;2.56;69.36;101643.22;5075907;27;67109;-60
2021/11/11 04:01:15;;;;;;;;;84.75;60.50;;;;;2.59;69.61;101638.75;5077420;28;45321;-59
2021/11/11 04:03:40;;;;;;;;;75.25;56.75;;;;;2.61;69.70;101636.97;5076391;28;65257;-60
2021/11/11 04:06:05;;;;;;;;;76.00;58.00;;;;;2.63;69.97;101636.91;5077031;28;45345;-59
2021/11/11 04:08:31;;;;;;;;;73.75;56.25;;;;;2.62;69.78;101632.63;5076395;27;64202;-60
2021/11/11 04:10:57;;;;;;;;;74.50;58.00;;;;;2.60;69.96;101639.63;5077136;27;45255;-60
2021/11/11 04:13:23;;;;;;;;;80.00;58.25;;;;;2.56;70.14;101641.47;5076181;28;65925;-60
2021/11/11 04:15:48;;;;;;;;;76.25;57.00;;;;;2.56;70.21;101644.06;5075654;27;46508;-60
2021/11/11 04:18:13;;;;;;;;;70.75;54.75;;;;;2.57;70.70;101644.94;5076884;28;45255;-60
2021/11/11 04:20:39;;;;;;;;;77.50;56.00;;;;;2.59;70.55;101654.31;5076295;27;63499;-60
2021/11/11 04:23:04;;;;;;;;;74.50;55.75;;;;;2.62;70.74;101658.56;5076292;28;66325;-60
2021/11/11 04:28:38;;;;;;;;;66.75;52.75;;;;;2.64;70.59;101660.19;5014396;28;45215;-60
2021/11/11 04:31:08;;;;;;;;;71.50;54.00;;;;;2.63;70.58;101660.28;4997870;28;45387;-60
2021/11/11 04:33:36;;;;;;;;;69.00;54.00;;;;;2.60;70.22;101661.22;5036667;28;45207;-59
2021/11/11 04:36:10;;;;;;;;;72.25;53.75;;;;;2.56;70.48;101667.41;5076689;28;45381;-60
2021/11/11 04:46:55;;;;;;;;;75.25;55.50;;;;;2.48;70.36;101667.69;5076578;28;45244;-60
2021/11/11 05:00:04;;;;;;;;;72.00;56.25;;;;;2.35;70.72;101675.09;5076467;28;45301;-60
2021/11/11 05:05:13;;;;;;;;;74.75;54.75;;;;;2.39;70.76;101683.59;5076669;28;45245;-60
2021/11/11 05:07:39;;;;;;;;;69.25;54.50;;;;;2.40;70.49;101684.44;5075478;28;74577;-60
2021/11/11 05:10:05;;;;;;;;;72.75;54.75;;;;;2.41;70.79;101686.97;5075809;27;45235;-60
2021/11/11 05:12:30;;;;;;;;;71.25;52.50;;;;;2.42;70.69;101683.50;5079548;28;45255;-59
2021/11/11 05:14:56;;;;;;;;;69.50;54.75;;;;;2.43;70.87;101673.94;5078909;27;45588;-59
2021/11/11 05:17:22;;;;;;;;;69.00;54.50;;;;;2.44;71.19;101676.50;5079905;27;45228;-60
2021/11/11 05:19:49;;;;;;;;;74.25;54.75;;;;;2.45;71.40;101685.97;5079921;28;45901;-59
2021/11/11 05:22:14;;;;;;;;;77.00;56.25;;;;;2.45;71.06;101688.56;5080082;28;45351;-59
2021/11/11 05:24:39;;;;;;;;;73.50;54.50;;;;;2.45;71.01;101691.16;5080072;27;45370;-59
2021/11/11 05:27:05;;;;;;;;;67.50;52.00;;;;;2.46;71.19;101687.66;5079096;27;56601;-60
2021/11/11 05:29:31;;;;;;;;;71.25;52.00;;;;;2.47;71.19;101689.34;5079928;27;45477;-59
2021/11/11 05:31:57;;;;;;;;;74.25;55.75;;;;;2.49;70.82;101697.94;5078772;28;45304;-60
2021/11/11 05:34:23;;;;;;;;;69.75;51.00;;;;;2.51;70.92;101697.88;5078975;28;65610;-60
2021/11/11 05:36:48;;;;;;;;;64.00;50.75;;;;;2.54;70.96;101692.56;5079724;28;45541;-60
2021/11/11 05:39:14;;;;;;;;;61.50;48.50;;;;;2.57;70.87;101687.28;5078033;28;47451;-60
2021/11/11 05:41:40;;;;;;;;;63.75;48.25;;;;;2.58;70.67;101694.16;5078898;28;65018;-60
2021/11/11 05:44:05;;;;;;;;;65.25;49.00;;;;;2.59;70.76;101684.63;5079662;28;45575;-60
2021/11/11 05:46:31;;;;;;;;;65.50;45.25;;;;;2.59;70.63;101697.59;5079597;27;46333;-60
2021/11/11 05:48:56;;;;;;;;;53.75;44.75;;;;;2.57;70.58;101700.25;5078880;28;59227;-60
2021/11/11 05:51:21;;;;;;;;;60.75;47.50;;;;;2.58;70.35;101714.91;5078889;27;64162;-60
2021/11/11 05:53:47;;;;;;;;;65.25;48.25;;;;;2.57;70.21;101712.38;5078838;28;61648;-60
2021/11/11 05:56:12;;;;;;;;;62.00;44.75;;;;;2.57;70.60;101722.75;5078238;28;45428;-60
2021/11/11 05:58:37;;;;;;;;;62.75;46.25;;;;;2.57;70.53;101720.16;5078294;28;70711;-60
2021/11/11 06:01:03;;;;;;;;;60.75;48.00;;;;;2.58;70.45;101729.66;5078486;27;62367;-60
2021/11/11 06:03:28;;;;;;;;;59.75;44.25;;;;;2.58;70.33;101734.84;5079429;28;45263;-60
2021/11/11 06:05:54;;;;;;;;;58.50;45.75;;;;;2.58;70.80;101740.03;5078431;27;66345;-60
2021/11/11 06:08:19;;;;;;;;;59.25;45.50;;;;;2.59;70.87;101746.91;5078559;28;62238;-60
2021/11/11 06:10:44;;;;;;;;;63.50;49.00;;;;;2.58;70.62;101745.22;5079311;28;45319;-60
2021/11/11 06:13:10;;;;;;;;;66.25;46.25;;;;;2.58;70.86;101745.22;5078801;28;51050;-60
2021/11/11 06:15:36;;;;;;;;;62.00;47.25;;;;;2.60;70.90;101748.59;5078435;27;45457;-60
2021/11/11 06:18:02;;;;;;;;;59.00;45.00;;;;;2.61;71.15;101751.13;5078934;28;45404;-60
2021/11/11 06:20:31;;;;;;;;;61.25;45.50;;;;;2.61;70.99;101760.69;5078417;28;45462;-59
2021/11/11 06:22:57;;;;;;;;;65.75;47.25;;;;;2.62;70.73;101783.13;5078733;28;45587;-60
2021/11/11 06:25:22;;;;;;;;;65.75;48.50;;;;;2.57;70.45;101782.44;5078442;28;45526;-60
2021/11/11 06:27:48;;;;;;;;;61.25;44.75;;;;;2.52;70.61;101788.63;5078319;28;54619;-60
2021/11/11 06:30:13;;;;;;;;;54.50;42.00;;;;;2.46;70.67;101791.44;5078857;28;45526;-60
2021/11/11 06:32:38;;;;;;;;;58.25;44.00;;;;;2.42;70.92;101794.16;5078034;28;61931;-59
2021/11/11 06:35:04;;;;;;;;;57.00;41.50;;;;;2.41;71.13;101805.44;5078383;28;45483;-60
2021/11/11 06:37:30;;;;;;;;;58.75;42.00;;;;;2.37;71.00;101815.09;5078494;28;45335;-60
2021/11/11 06:39:55;;;;;;;;;55.75;41.25;;;;;2.36;71.10;101813.41;5078822;28;45257;-59
2021/11/11 06:42:21;;;;;;;;;52.00;42.25;;;;;2.34;71.32;101813.47;5078376;28;48759;-59
2021/11/11 06:44:47;;;;;;;;;53.50;41.00;;;;;2.33;71.48;101816.09;5077092;28;48147;-59
2021/11/11 06:47:13;;;;;;;;;58.50;45.25;;;;;2.34;71.52;101823.84;5078406;28;45247;-59
2021/11/11 06:49:38;;;;;;;;;51.75;40.75;;;;;2.35;71.63;101822.06;5078751;27;45292;-60
2021/11/11 06:52:04;;;;;;;;;50.00;39.25;;;;;2.36;71.85;101822.03;5077904;28;60136;-60
2021/11/11 06:54:31;;;;;;;;;51.25;40.50;;;;;2.35;72.14;101833.31;5078078;27;48873;-60
2021/11/11 06:56:56;;;;;;;;;45.00;40.50;;;;;2.40;72.20;101840.94;5078249;28;45316;-60
2021/11/11 06:59:22;;;;;;;;;51.00;38.75;;;;;2.41;72.05;101845.22;5075999;27;65990;-60
2021/11/11 07:01:47;;;;;;;;;51.25;41.25;;;;;2.41;71.93;101837.44;5077387;28;65940;-60
2021/11/11 07:04:13;;;;;;;;;42.25;38.25;;;;;2.41;71.77;101829.66;5077198;28;70739;-60
2021/11/11 07:06:38;;;;;;;;;47.50;39.50;;;;;2.40;71.91;101827.09;5077434;28;64691;-59
2021/11/11 07:09:03;;;;;;;;;49.00;39.25;;;;;2.36;72.14;101828.97;5077308;28;64958;-59
2021/11/11 07:11:29;;;;;;;;;46.75;37.50;;;;;2.37;72.18;101826.31;5078048;27;45357;-60
2021/11/11 07:13:55;;;;;;;;;49.75;38.00;;;;;2.39;72.00;101823.66;5077157;28;71902;-60
2021/11/11 07:16:21;;;;;;;;;55.00;40.00;;;;;2.40;72.47;101825.38;5078118;28;45337;-59
2021/11/11 07:18:46;;;;;;;;;50.00;39.75;;;;;2.40;72.57;101830.56;5077939;28;45319;-60
2021/11/11 07:21:12;;;;;;;;;53.00;40.00;;;;;2.42;72.50;101838.28;5075642;28;45540;-60
2021/11/11 07:23:37;;;;;;;;;46.00;39.00;;;;;2.43;72.54;101830.44;5076776;27;72134;-59
2021/11/11 07:26:02;;;;;;;;;53.00;39.50;;;;;2.46;72.66;101829.50;5076652;27;62120;-60
2021/11/11 07:28:28;;;;;;;;;45.25;38.25;;;;;2.47;72.62;101832.06;5076987;28;65011;-60
2021/11/11 07:30:53;;;;;;;;;53.00;38.75;;;;;2.49;72.77;101840.63;5077911;28;45500;-60
2021/11/11 07:33:19;;;;;;;;;47.00;37.25;;;;;2.52;72.75;101830.16;5077258;28;46536;-59
2021/11/11 07:35:44;;;;;;;;;47.25;38.75;;;;;2.55;72.72;101836.13;5076534;28;67400;-59
2021/11/11 07:38:10;;;;;;;;;51.75;38.25;;;;;2.56;72.51;101838.66;5077674;28;45300;-60
2021/11/11 07:40:36;;;;;;;;;49.75;39.75;;;;;2.58;71.98;101841.22;5077681;28;45170;-60
2021/11/11 07:43:03;;;;;;;;;51.50;37.25;;;;;2.58;72.64;101849.00;5077577;27;47269;-60
2021/11/11 07:45:29;;;;;;;;;47.75;38.00;;;;;2.56;72.40;101838.66;5077515;27;45275;-60
2021/11/11 07:47:56;;;;;;;;;52.75;38.00;;;;;2.60;72.64;101842.03;5076482;28;45437;-60
2021/11/11 07:50:22;;;;;;;;;46.25;38.25;;;;;2.63;72.31;101831.53;5077123;28;45532;-60
2021/11/11 07:52:47;;;;;;;;;51.50;40.25;;;;;2.65;72.35;101827.97;5076977;27;46354;-60
2021/11/11 07:55:13;;;;;;;;;48.50;39.50;;;;;2.65;72.22;101827.97;5077415;27;45366;-60
2021/11/11 07:57:39;;;;;;;;;48.50;39.75;;;;;2.67;72.43;101828.78;5077360;27;45316;-60
2021/11/11 08:00:07;;;;;;;;;55.00;41.50;;;;;2.68;72.15;101819.22;5076152;28;45549;-60
2021/11/11 08:02:32;;;;;;;;;60.50;46.25;;;;;2.70;71.78;101816.59;5077087;28;46250;-60
2021/11/11 08:04:57;;;;;;;;;57.50;42.75;;;;;2.70;71.85;101814.81;5077135;28;45365;-60
2021/11/11 08:07:23;;;;;;;;;53.50;41.25;;;;;2.72;72.01;101804.41;5077094;28;45299;-60
2021/11/11 08:09:49;;;;;;;;;54.50;42.50;;;;;2.72;71.95;101800.06;5076073;28;64787;-60
2021/11/11 08:12:15;;;;;;;;;58.50;42.50;;;;;2.72;71.96;101800.06;5076973;28;46039;-59
2021/11/11 08:14:40;;;;;;;;;48.50;38.00;;;;;2.74;72.20;101805.19;5075533;28;45353;-60
2021/11/11 08:17:08;;;;;;;;;47.25;37.75;;;;;2.76;71.87;101819.81;5077031;28;45306;-60
2021/11/11 08:19:33;;;;;;;;;46.00;35.50;;;;;2.77;71.48;101813.72;5077057;28;45452;-60
2021/11/11 08:21:58;;;;;;;;;45.75;37.75;;;;;2.80;71.78;101810.19;5076284;28;62030;-59
2021/11/11 08:24:24;;;;;;;;;51.50;39.50;;;;;2.84;71.73;101808.31;5076477;28;45366;-60
2021/11/11 08:26:49;;;;;;;;;46.25;38.75;;;;;2.87;71.52;101803.88;5076738;27;45516;-60
2021/11/11 08:29:15;;;;;;;;;54.00;41.75;;;;;2.92;71.69;101795.91;5076697;28;45394;-60
2021/11/11 08:31:40;;;;;;;;;54.00;39.75;;;;;2.95;71.82;101811.38;5075500;28;70554;-59
2021/11/11 08:34:06;;;;;;;;;58.75;40.00;;;;;2.99;71.37;101807.78;5076505;28;45369;-60
2021/11/11 08:36:31;;;;;;;;;54.50;40.50;;;;;3.00;71.35;101804.28;5076662;28;45323;-59
2021/11/11 08:38:57;;;;;;;;;46.00;40.75;;;;;3.01;71.60;101800.78;5075621;28;64709;-60
2021/11/11 08:41:23;;;;;;;;;56.25;39.50;;;;;3.02;71.56;101789.50;5076338;28;46454;-60
2021/11/11 08:43:48;;;;;;;;;53.00;37.75;;;;;3.07;71.55;101802.28;5075917;28;45310;-59
2021/11/11 08:46:13;;;;;;;;;50.50;40.50;;;;;3.08;71.46;101801.38;5074506;28;60696;-59
2021/11/11 08:48:39;;;;;;;;;58.75;42.00;;;;;3.08;71.99;101796.19;5076317;28;45474;-60
2021/11/11 08:51:04;;;;;;;;;50.50;40.75;;;;;3.10;71.70;101784.88;5075553;28;61314;-60
2021/11/11 08:53:30;;;;;;;;;56.75;41.50;;;;;3.14;71.45;101780.38;5075429;28;68443;-60
2021/11/11 08:55:56;;;;;;;;;53.50;40.25;;;;;3.17;71.47;101777.69;5076585;28;45319;-59
2021/11/11 08:58:22;;;;;;;;;60.00;43.25;;;;;3.21;71.41;101766.28;5076109;28;45312;-59
2021/11/11 09:00:50;;;;;;;;;58.25;41.75;;;;;3.25;71.56;101767.84;5075440;27;64349;-60
2021/11/11 09:03:17;;;;;;;;;61.50;44.00;;;;;3.29;71.37;101773.75;5074808;27;45659;-60
2021/11/11 09:05:43;;;;;;;;;53.75;40.50;;;;;3.34;71.40;101774.44;5074767;28;45320;-60
2021/11/11 09:08:08;;;;;;;;;54.50;44.50;;;;;3.35;71.37;101772.72;5073904;28;65709;-59
2021/11/11 09:10:34;;;;;;;;;60.50;44.75;;;;;3.36;71.50;101769.19;5075912;28;45928;-62
2021/11/11 09:13:00;;;;;;;;;58.00;46.75;;;;;3.39;71.41;101769.09;5075919;28;45462;-60
2021/11/11 09:15:27;;;;;;;;;61.25;46.50;;;;;3.42;71.59;101769.81;5076222;28;45394;-60
2021/11/11 09:17:54;;;;;;;;;62.25;47.25;;;;;3.47;71.56;101771.38;5074713;27;45492;-60
2021/11/11 09:20:19;;;;;;;;;67.00;48.25;;;;;3.51;71.35;101762.56;5075915;28;45712;-60
2021/11/11 09:22:46;;;;;;;;;61.00;48.75;;;;;3.52;71.68;101770.28;5075945;28;45875;-59
2021/11/11 09:25:11;;;;;;;;;56.25;41.50;;;;;3.55;71.81;101775.38;5075058;28;45360;-60
2021/11/11 09:27:37;;;;;;;;;340.50;306.25;;;;;3.59;72.14;101770.91;5075739;27;45366;-59
2021/11/11 09:30:05;;;;;;;;;69.75;50.00;;;;;3.63;72.13;101772.47;5075771;28;45967;-60
2021/11/11 09:32:30;;;;;;;;;64.25;47.00;;;;;3.70;71.74;101770.47;5075847;27;45713;-60
2021/11/11 09:34:56;;;;;;;;;60.75;45.50;;;;;3.75;71.57;101772.88;5075209;28;62182;-59
2021/11/11 09:37:21;;;;;;;;;56.75;43.50;;;;;3.80;71.57;101774.41;5074767;28;66994;-59
2021/11/11 09:39:47;;;;;;;;;65.25;47.00;;;;;3.85;71.61;101771.59;5074166;28;51895;-60
2021/11/11 09:42:12;;;;;;;;;64.25;51.25;;;;;3.91;71.55;101770.53;5075192;28;62282;-59
2021/11/11 09:44:38;;;;;;;;;67.00;49.00;;;;;3.92;71.29;101778.25;5073459;28;65313;-59
2021/11/11 09:47:03;;;;;;;;;66.00;49.50;;;;;3.99;71.71;101782.31;5070921;28;45161;-60
2021/11/11 09:49:29;;;;;;;;;59.50;44.00;;;;;4.06;71.84;101779.47;5061604;28;46765;-59
2021/11/11 09:51:58;;;;;;;;;71.75;53.00;;;;;4.14;71.56;101772.19;5059574;28;45383;-59
2021/11/11 09:59:37;;;;;;;;;64.50;49.00;;;;;4.31;71.46;101777.50;5062441;28;45481;-59
2021/11/11 10:02:03;;;;;;;;;63.50;47.00;;;;;4.36;71.51;101773.88;5050562;28;45909;-59
2021/11/11 10:04:29;;;;;;;;;64.00;49.00;;;;;4.42;71.52;101765.81;5066363;28;45474;-59
2021/11/11 10:06:55;;;;;;;;;66.75;50.75;;;;;4.49;71.15;101771.63;5054089;28;45458;-60
2021/11/11 10:09:21;;;;;;;;;69.25;51.00;;;;;4.55;71.34;101764.38;5039543;28;46519;-60
2021/11/11 10:11:51;;;;;;;;;65.50;49.50;;;;;4.58;71.29;101760.78;5066348;27;45374;-60
2021/11/11 10:14:37;;;;;;;;;69.25;48.25;;;;;4.67;71.44;101760.38;5063900;28;45448;-60
2021/11/11 10:17:04;;;;;;;;;63.25;49.50;;;;;4.75;71.67;101753.09;5075663;28;45514;-60
2021/11/11 10:19:31;;;;;;;;;66.50;51.50;;;;;4.85;71.77;101757.88;5077969;28;46771;-60
2021/11/11 10:22:03;;;;;;;;;71.25;53.00;;;;;4.97;71.90;101753.88;5078129;27;45294;-60
2021/11/11 10:24:34;;;;;;;;;70.25;51.25;;;;;5.10;72.33;101756.75;5077838;28;45639;-60
2021/11/11 10:27:02;;;;;;;;;70.00;54.00;;;;;5.22;72.30;101744.94;5077467;27;45369;-60
2021/11/11 10:29:31;;;;;;;;;72.00;52.75;;;;;5.32;72.48;101730.53;5077435;28;45598;-60
2021/11/11 10:32:19;;;;;;;;;75.25;54.00;;;;;5.42;72.74;101729.19;5077794;28;45690;-60
2021/11/11 10:34:52;;;;;;;;;76.50;55.50;;;;;5.52;72.56;101734.84;5068252;27;45234;-60
2021/11/11 10:37:19;;;;;;;;;79.50;59.75;;;;;5.64;72.39;101746.44;5077653;27;45518;-60
2021/11/11 10:40:18;;;;;;;;;78.25;59.50;;;;;5.78;72.29;101743.16;5078086;28;46614;-59
2021/11/11 10:42:44;;;;;;;;;79.50;59.75;;;;;5.87;72.45;101755.75;5066191;28;45567;-60
2021/11/11 10:45:18;;;;;;;;;77.25;60.75;;;;;5.99;72.31;101759.50;5078219;28;45508;-60
2021/11/11 10:47:45;;;;;;;;;74.75;56.75;;;;;6.11;72.15;101767.69;5076481;27;45519;-60
2021/11/11 10:50:18;;;;;;;;;76.75;57.50;;;;;6.22;72.12;101775.81;5077745;27;46538;-60
2021/11/11 10:52:45;;;;;;;;;69.50;54.25;;;;;6.30;71.91;101770.22;5078082;27;45404;-60
2021/11/11 10:55:10;;;;;;;;;76.50;55.25;;;;;6.38;71.67;101773.28;5076805;27;45400;-60
2021/11/11 10:57:59;;;;;;;;;75.67;54.00;;;;;6.43;71.10;101771.28;5077832;28;45536;-60
2021/11/11 11:00:43;;;;;;;;;79.50;61.00;;;;;6.48;71.08;101771.03;5076803;27;45312;-60
2021/11/11 11:03:18;;;;;;;;;90.00;70.25;;;;;6.49;71.23;101755.31;5077310;28;45409;-60
2021/11/11 11:05:43;;;;;;;;;88.50;70.00;;;;;6.53;71.00;101748.13;5077836;28;45341;-60
2021/11/11 11:08:11;;;;;;;;;89.67;66.00;;;;;6.50;70.52;101730.88;5077235;28;45583;-60
2021/11/11 11:10:38;;;;;;;;;83.00;64.00;;;;;6.48;70.94;101731.88;5076787;28;46142;-60
2021/11/11 11:13:12;;;;;;;;;172.75;142.75;;;;;6.49;71.13;101723.09;5077368;28;45410;-60
2021/11/11 11:15:41;;;;;;;;;103.75;87.50;;;;;6.49;71.21;101718.75;5077711;28;45231;-60
2021/11/11 11:18:07;;;;;;;;;88.75;71.75;;;;;6.56;71.20;101708.00;5076381;27;45497;-60
2021/11/11 11:20:32;;;;;;;;;107.50;90.50;;;;;6.59;71.23;101703.44;5077413;28;45442;-60
2021/11/11 11:23:13;;;;;;;;;95.00;79.00;;;;;6.65;71.04;101697.88;5076483;27;71544;-59
2021/11/11 11:25:39;;;;;;;;;80.25;60.50;;;;;6.68;70.95;101702.09;5077499;28;45267;-60
2021/11/11 11:28:35;;;;;;;;;89.50;70.75;;;;;6.73;71.20;101707.91;5077573;28;45271;-60
2021/11/11 11:31:01;;;;;;;;;81.00;60.50;;;;;6.78;71.23;101702.47;5075968;27;45426;-60
2021/11/11 11:33:33;;;;;;;;;114.00;100.00;;;;;6.82;71.25;101703.97;5076075;27;45214;-60
2021/11/11 11:35:58;;;;;;;;;82.00;60.50;;;;;6.91;71.27;101702.63;5077438;27;45264;-60
2021/11/11 11:38:25;;;;;;;;;102.00;86.50;;;;;6.95;70.90;101707.59;5077342;28;45386;-60
2021/11/11 11:40:50;;;;;;;;;77.25;56.50;;;;;7.00;71.13;101701.28;5075670;28;45654;-59
2021/11/11 11:43:27;;;;;;;;;75.75;57.50;;;;;7.05;70.73;101707.09;5075843;28;47432;-60